UAL155 PTPN-PTSA
Flight info
| Callsign | UAL155 |
|---|---|
| Flight time | 0h 53m |
| Altitude | 31000 |
| Route | AXTEN AMZAP |
| Aircraft | B738/M-SDE2E3FGHIRWXY/LB1 |
Departure
| Time | 2026-04-17 02:05 |
|---|---|
| Airport | Pohnpei International Airport (PTPN) |
Arrival
| Time | 2026-04-17 02:58 |
|---|---|
| Airport | Kosrae International Airport (PTSA) |
| Time | Latitude | Longitude | Altitude | Speed | Heading |
|---|---|---|---|---|---|
| 2026-04-17 01:52 | 6.98196 | 158.20395 | 16 ft | 0 kts | 178° |
| 2026-04-17 01:58 | 6.98218 | 158.20395 | 16 ft | 4 kts | 178° |
| 2026-04-17 01:59 | 6.98245 | 158.20394 | 18 ft | 4 kts | 178° |
| 2026-04-17 01:59 | 6.98272 | 158.20393 | 19 ft | 3 kts | 178° |
| 2026-04-17 01:59 | 6.98276 | 158.20393 | 18 ft | 0 kts | 178° |
| 2026-04-17 02:01 | 6.98269 | 158.20390 | 26 ft | 2 kts | 212° |
| 2026-04-17 02:02 | 6.98275 | 158.20366 | 10 ft | 5 kts | 311° |
| 2026-04-17 02:02 | 6.98320 | 158.20358 | 17 ft | 8 kts | 359° |
| 2026-04-17 02:02 | 6.98385 | 158.20358 | 18 ft | 11 kts | 1° |
| 2026-04-17 02:02 | 6.98464 | 158.20360 | 16 ft | 9 kts | 358° |
| 2026-04-17 02:03 | 6.98509 | 158.20320 | 17 ft | 11 kts | 284° |
| 2026-04-17 02:03 | 6.98514 | 158.20234 | 16 ft | 14 kts | 271° |
| 2026-04-17 02:03 | 6.98486 | 158.20149 | 17 ft | 11 kts | 240° |
| 2026-04-17 02:03 | 6.98490 | 158.20088 | 18 ft | 8 kts | 333° |
| 2026-04-17 02:04 | 6.98514 | 158.20103 | 17 ft | 4 kts | 79° |
| 2026-04-17 02:04 | 6.98514 | 158.20136 | 16 ft | 7 kts | 91° |
| 2026-04-17 02:04 | 6.98513 | 158.20421 | 16 ft | 82 kts | 90° |
| 2026-04-17 02:04 | 6.98509 | 158.21263 | 18 ft | 156 kts | 90° |
| 2026-04-17 02:05 | 6.98482 | 158.22436 | 622 ft | 174 kts | 93° |
| 2026-04-17 02:05 | 6.98264 | 158.23655 | 1643 ft | 177 kts | 108° |
| 2026-04-17 02:05 | 6.97861 | 158.24845 | 2442 ft | 189 kts | 111° |
| 2026-04-17 02:05 | 6.97374 | 158.26152 | 2888 ft | 208 kts | 111° |
| 2026-04-17 02:06 | 6.96845 | 158.27593 | 3136 ft | 232 kts | 110° |
| 2026-04-17 02:06 | 6.96271 | 158.29159 | 3598 ft | 245 kts | 110° |
| 2026-04-17 02:06 | 6.95645 | 158.30848 | 3950 ft | 267 kts | 110° |
| 2026-04-17 02:06 | 6.94983 | 158.32608 | 4814 ft | 269 kts | 110° |
| 2026-04-17 02:07 | 6.94314 | 158.34398 | 5541 ft | 277 kts | 110° |
| 2026-04-17 02:07 | 6.93640 | 158.36220 | 6388 ft | 279 kts | 109° |
| 2026-04-17 02:07 | 6.92968 | 158.38043 | 7154 ft | 283 kts | 109° |
| 2026-04-17 02:07 | 6.92287 | 158.39924 | 7878 ft | 289 kts | 109° |
| 2026-04-17 02:08 | 6.91604 | 158.41836 | 8678 ft | 292 kts | 108° |
| 2026-04-17 02:08 | 6.90908 | 158.43770 | 9500 ft | 295 kts | 108° |
| 2026-04-17 02:08 | 6.90202 | 158.45718 | 10257 ft | 298 kts | 108° |
| 2026-04-17 02:08 | 6.89469 | 158.47749 | 10519 ft | 321 kts | 108° |
| 2026-04-17 02:09 | 6.88681 | 158.49940 | 10714 ft | 344 kts | 108° |
| 2026-04-17 02:09 | 6.87846 | 158.52252 | 11108 ft | 356 kts | 108° |
| 2026-04-17 02:09 | 6.86993 | 158.54604 | 11748 ft | 359 kts | 108° |
| 2026-04-17 02:09 | 6.86132 | 158.56972 | 12469 ft | 361 kts | 108° |
| 2026-04-17 02:10 | 6.85267 | 158.59354 | 13156 ft | 363 kts | 108° |
| 2026-04-17 02:10 | 6.84396 | 158.61752 | 13800 ft | 367 kts | 108° |
| 2026-04-17 02:10 | 6.83530 | 158.64137 | 14381 ft | 369 kts | 108° |
| 2026-04-17 02:10 | 6.82647 | 158.66567 | 15006 ft | 370 kts | 108° |
| 2026-04-17 02:11 | 6.81768 | 158.69011 | 15611 ft | 372 kts | 108° |
| 2026-04-17 02:11 | 6.80920 | 158.71475 | 16203 ft | 374 kts | 107° |
| 2026-04-17 02:11 | 6.80081 | 158.73960 | 16779 ft | 376 kts | 107° |
| 2026-04-17 02:11 | 6.79243 | 158.76458 | 17355 ft | 378 kts | 107° |
| 2026-04-17 02:12 | 6.78400 | 158.78967 | 17913 ft | 380 kts | 108° |
| 2026-04-17 02:12 | 6.77549 | 158.81497 | 18418 ft | 382 kts | 108° |
| 2026-04-17 02:12 | 6.76690 | 158.84042 | 18848 ft | 386 kts | 108° |
| 2026-04-17 02:12 | 6.75834 | 158.86575 | 19254 ft | 389 kts | 108° |
| 2026-04-17 02:13 | 6.74946 | 158.89197 | 19646 ft | 393 kts | 108° |
| 2026-04-17 02:13 | 6.74061 | 158.91811 | 20079 ft | 396 kts | 108° |
| 2026-04-17 02:13 | 6.73168 | 158.94444 | 20477 ft | 399 kts | 108° |
| 2026-04-17 02:13 | 6.72279 | 158.97065 | 20891 ft | 402 kts | 108° |
| 2026-04-17 02:14 | 6.71373 | 158.99737 | 21321 ft | 404 kts | 108° |
| 2026-04-17 02:14 | 6.70459 | 159.02427 | 21747 ft | 407 kts | 108° |
| 2026-04-17 02:14 | 6.69542 | 159.05129 | 22142 ft | 409 kts | 108° |
| 2026-04-17 02:14 | 6.68620 | 159.07845 | 22543 ft | 412 kts | 108° |
| 2026-04-17 02:15 | 6.67690 | 159.10585 | 22925 ft | 415 kts | 108° |
| 2026-04-17 02:15 | 6.66755 | 159.13338 | 23308 ft | 417 kts | 108° |
| 2026-04-17 02:15 | 6.65814 | 159.16106 | 23651 ft | 420 kts | 108° |
| 2026-04-17 02:15 | 6.64867 | 159.18894 | 23982 ft | 421 kts | 108° |
| 2026-04-17 02:16 | 6.63917 | 159.21688 | 24313 ft | 423 kts | 108° |
| 2026-04-17 02:16 | 6.62963 | 159.24494 | 24640 ft | 425 kts | 108° |
| 2026-04-17 02:16 | 6.62005 | 159.27313 | 24972 ft | 426 kts | 108° |
| 2026-04-17 02:16 | 6.61044 | 159.30140 | 25282 ft | 428 kts | 108° |
| 2026-04-17 02:17 | 6.60079 | 159.32976 | 25601 ft | 430 kts | 108° |
| 2026-04-17 02:17 | 6.59121 | 159.35792 | 25901 ft | 432 kts | 108° |
| 2026-04-17 02:17 | 6.58148 | 159.38653 | 26217 ft | 433 kts | 108° |
| 2026-04-17 02:17 | 6.57173 | 159.41516 | 26613 ft | 432 kts | 109° |
| 2026-04-17 02:18 | 6.56201 | 159.44371 | 27084 ft | 429 kts | 109° |
| 2026-04-17 02:18 | 6.55236 | 159.47207 | 27563 ft | 427 kts | 109° |
| 2026-04-17 02:18 | 6.54275 | 159.50027 | 27998 ft | 426 kts | 109° |
| 2026-04-17 02:18 | 6.53315 | 159.52846 | 28419 ft | 425 kts | 109° |
| 2026-04-17 02:19 | 6.52357 | 159.55659 | 28869 ft | 424 kts | 109° |
| 2026-04-17 02:19 | 6.51402 | 159.58462 | 29352 ft | 422 kts | 109° |
| 2026-04-17 02:19 | 6.50452 | 159.61248 | 29811 ft | 421 kts | 109° |
| 2026-04-17 02:19 | 6.49504 | 159.64031 | 30209 ft | 420 kts | 109° |
| 2026-04-17 02:20 | 6.48558 | 159.66804 | 30579 ft | 419 kts | 109° |
| 2026-04-17 02:20 | 6.47613 | 159.69578 | 30888 ft | 420 kts | 109° |
| 2026-04-17 02:20 | 6.46664 | 159.72361 | 30882 ft | 421 kts | 109° |
| 2026-04-17 02:21 | 6.44774 | 159.77900 | 30903 ft | 418 kts | 109° |
| 2026-04-17 02:21 | 6.42886 | 159.83431 | 30912 ft | 418 kts | 109° |
| 2026-04-17 02:22 | 6.41012 | 159.88920 | 30910 ft | 418 kts | 109° |
| 2026-04-17 02:22 | 6.39121 | 159.94454 | 30907 ft | 418 kts | 109° |
| 2026-04-17 02:23 | 6.37552 | 159.99046 | 30908 ft | 418 kts | 109° |
| 2026-04-17 02:23 | 6.35665 | 160.04567 | 30906 ft | 417 kts | 109° |
| 2026-04-17 02:24 | 6.33780 | 160.10081 | 30906 ft | 417 kts | 109° |
| 2026-04-17 02:24 | 6.31896 | 160.15587 | 30907 ft | 416 kts | 109° |
| 2026-04-17 02:25 | 6.30011 | 160.21095 | 30906 ft | 416 kts | 109° |
| 2026-04-17 02:25 | 6.28126 | 160.26602 | 30908 ft | 416 kts | 109° |
| 2026-04-17 02:26 | 6.26241 | 160.32106 | 30905 ft | 417 kts | 109° |
| 2026-04-17 02:26 | 6.24352 | 160.37620 | 30904 ft | 417 kts | 109° |
| 2026-04-17 02:27 | 6.22462 | 160.43134 | 30910 ft | 417 kts | 109° |
| 2026-04-17 02:27 | 6.20583 | 160.48617 | 30906 ft | 417 kts | 109° |
| 2026-04-17 02:28 | 6.18690 | 160.54136 | 30907 ft | 417 kts | 109° |
| 2026-04-17 02:28 | 6.16796 | 160.59656 | 30907 ft | 418 kts | 109° |
| 2026-04-17 02:29 | 6.14902 | 160.65172 | 30903 ft | 418 kts | 109° |
| 2026-04-17 02:29 | 6.13007 | 160.70692 | 30905 ft | 418 kts | 109° |
| 2026-04-17 02:30 | 6.11112 | 160.76208 | 30905 ft | 418 kts | 109° |
| 2026-04-17 02:30 | 6.09217 | 160.81725 | 30906 ft | 418 kts | 109° |
| 2026-04-17 02:31 | 6.07320 | 160.87242 | 30907 ft | 418 kts | 109° |
| 2026-04-17 02:31 | 6.05421 | 160.92763 | 30908 ft | 418 kts | 109° |
| 2026-04-17 02:32 | 6.03575 | 160.98131 | 30867 ft | 398 kts | 109° |
| 2026-04-17 02:32 | 6.02676 | 161.00744 | 30600 ft | 392 kts | 109° |
| 2026-04-17 02:32 | 6.01791 | 161.03314 | 30300 ft | 388 kts | 109° |
| 2026-04-17 02:32 | 6.00913 | 161.05865 | 29964 ft | 385 kts | 109° |
| 2026-04-17 02:33 | 6.00040 | 161.08401 | 29565 ft | 383 kts | 109° |
| 2026-04-17 02:33 | 5.99172 | 161.10923 | 29164 ft | 380 kts | 109° |
| 2026-04-17 02:33 | 5.98312 | 161.13422 | 28783 ft | 378 kts | 109° |
| 2026-04-17 02:33 | 5.97454 | 161.15912 | 28404 ft | 375 kts | 109° |
| 2026-04-17 02:34 | 5.96605 | 161.18377 | 28037 ft | 372 kts | 109° |
| 2026-04-17 02:34 | 5.95762 | 161.20823 | 27668 ft | 370 kts | 109° |
| 2026-04-17 02:34 | 5.94924 | 161.23258 | 27304 ft | 367 kts | 109° |
| 2026-04-17 02:34 | 5.94089 | 161.25679 | 26951 ft | 365 kts | 109° |
| 2026-04-17 02:35 | 5.93272 | 161.28049 | 26594 ft | 363 kts | 109° |
| 2026-04-17 02:35 | 5.92438 | 161.30469 | 26227 ft | 361 kts | 109° |
| 2026-04-17 02:35 | 5.90813 | 161.35183 | 25519 ft | 358 kts | 110° |
| 2026-04-17 02:36 | 5.89999 | 161.37541 | 25153 ft | 357 kts | 110° |
| 2026-04-17 02:36 | 5.89190 | 161.39887 | 24802 ft | 355 kts | 110° |
| 2026-04-17 02:36 | 5.88382 | 161.42230 | 24433 ft | 355 kts | 110° |
| 2026-04-17 02:36 | 5.87575 | 161.44568 | 24085 ft | 354 kts | 110° |
| 2026-04-17 02:37 | 5.86767 | 161.46911 | 23727 ft | 353 kts | 110° |
| 2026-04-17 02:37 | 5.85963 | 161.49237 | 23341 ft | 352 kts | 110° |
| 2026-04-17 02:37 | 5.85162 | 161.51558 | 22942 ft | 351 kts | 110° |
| 2026-04-17 02:37 | 5.84365 | 161.53866 | 22581 ft | 349 kts | 110° |
| 2026-04-17 02:38 | 5.83573 | 161.56160 | 22221 ft | 347 kts | 110° |
| 2026-04-17 02:38 | 5.82786 | 161.58439 | 21863 ft | 345 kts | 110° |
| 2026-04-17 02:38 | 5.82002 | 161.60710 | 21518 ft | 343 kts | 110° |
| 2026-04-17 02:38 | 5.81232 | 161.62938 | 21178 ft | 341 kts | 110° |
| 2026-04-17 02:39 | 5.80456 | 161.65184 | 20836 ft | 340 kts | 110° |
| 2026-04-17 02:39 | 5.79684 | 161.67419 | 20495 ft | 338 kts | 110° |
| 2026-04-17 02:39 | 5.78913 | 161.69649 | 20155 ft | 337 kts | 110° |
| 2026-04-17 02:39 | 5.78145 | 161.71871 | 19814 ft | 336 kts | 110° |
| 2026-04-17 02:40 | 5.77379 | 161.74085 | 19457 ft | 336 kts | 110° |
| 2026-04-17 02:40 | 5.76614 | 161.76298 | 19120 ft | 335 kts | 110° |
| 2026-04-17 02:40 | 5.75851 | 161.78505 | 18785 ft | 335 kts | 110° |
| 2026-04-17 02:40 | 5.75087 | 161.80714 | 18431 ft | 335 kts | 110° |
| 2026-04-17 02:41 | 5.74323 | 161.82923 | 18070 ft | 335 kts | 110° |
| 2026-04-17 02:41 | 5.73562 | 161.85124 | 17705 ft | 333 kts | 110° |
| 2026-04-17 02:41 | 5.72802 | 161.87318 | 17357 ft | 332 kts | 110° |
| 2026-04-17 02:41 | 5.72047 | 161.89501 | 17015 ft | 330 kts | 110° |
| 2026-04-17 02:42 | 5.71294 | 161.91676 | 16682 ft | 328 kts | 110° |
| 2026-04-17 02:42 | 5.70545 | 161.93838 | 16345 ft | 327 kts | 109° |
| 2026-04-17 02:42 | 5.69810 | 161.95963 | 16022 ft | 325 kts | 109° |
| 2026-04-17 02:42 | 5.69070 | 161.98100 | 15694 ft | 323 kts | 109° |
| 2026-04-17 02:43 | 5.68331 | 162.00233 | 15369 ft | 322 kts | 109° |
| 2026-04-17 02:43 | 5.67597 | 162.02354 | 15046 ft | 321 kts | 108° |
| 2026-04-17 02:43 | 5.66864 | 162.04469 | 14720 ft | 320 kts | 108° |
| 2026-04-17 02:43 | 5.66133 | 162.06577 | 14380 ft | 319 kts | 108° |
| 2026-04-17 02:44 | 5.65404 | 162.08684 | 14045 ft | 319 kts | 108° |
| 2026-04-17 02:44 | 5.64675 | 162.10785 | 13723 ft | 318 kts | 108° |
| 2026-04-17 02:44 | 5.63948 | 162.12885 | 13355 ft | 318 kts | 107° |
| 2026-04-17 02:44 | 5.63225 | 162.14973 | 13017 ft | 316 kts | 108° |
| 2026-04-17 02:45 | 5.62503 | 162.17055 | 12685 ft | 315 kts | 108° |
| 2026-04-17 02:45 | 5.61786 | 162.19123 | 12352 ft | 313 kts | 107° |
| 2026-04-17 02:45 | 5.61072 | 162.21183 | 12031 ft | 312 kts | 107° |
| 2026-04-17 02:45 | 5.60360 | 162.23236 | 11709 ft | 310 kts | 107° |
| 2026-04-17 02:46 | 5.59662 | 162.25249 | 11391 ft | 309 kts | 107° |
| 2026-04-17 02:46 | 5.58956 | 162.27286 | 11078 ft | 308 kts | 108° |
| 2026-04-17 02:46 | 5.58254 | 162.29309 | 10754 ft | 307 kts | 107° |
| 2026-04-17 02:46 | 5.57554 | 162.31327 | 10431 ft | 306 kts | 107° |
| 2026-04-17 02:47 | 5.56855 | 162.33343 | 10153 ft | 304 kts | 108° |
| 2026-04-17 02:47 | 5.56166 | 162.35328 | 10001 ft | 297 kts | 108° |
| 2026-04-17 02:47 | 5.55492 | 162.37268 | 9791 ft | 293 kts | 107° |
| 2026-04-17 02:47 | 5.54822 | 162.39202 | 9485 ft | 292 kts | 108° |
| 2026-04-17 02:48 | 5.54154 | 162.41126 | 9186 ft | 291 kts | 108° |
| 2026-04-17 02:48 | 5.53492 | 162.43035 | 8889 ft | 289 kts | 107° |
| 2026-04-17 02:48 | 5.52832 | 162.44936 | 8600 ft | 287 kts | 108° |
| 2026-04-17 02:48 | 5.52177 | 162.46823 | 8313 ft | 285 kts | 108° |
| 2026-04-17 02:49 | 5.51414 | 162.48659 | 8007 ft | 286 kts | 121° |
| 2026-04-17 02:49 | 5.50225 | 162.50257 | 7714 ft | 285 kts | 128° |
| 2026-04-17 02:49 | 5.48997 | 162.51781 | 7434 ft | 284 kts | 128° |
| 2026-04-17 02:49 | 5.47751 | 162.53323 | 7152 ft | 283 kts | 128° |
| 2026-04-17 02:50 | 5.46518 | 162.54863 | 6860 ft | 282 kts | 128° |
| 2026-04-17 02:50 | 5.45299 | 162.56395 | 6586 ft | 281 kts | 128° |
| 2026-04-17 02:50 | 5.44085 | 162.57928 | 6294 ft | 280 kts | 128° |
| 2026-04-17 02:50 | 5.42884 | 162.59453 | 5994 ft | 276 kts | 128° |
| 2026-04-17 02:51 | 5.41709 | 162.60945 | 5693 ft | 269 kts | 128° |
| 2026-04-17 02:51 | 5.40569 | 162.62397 | 5424 ft | 261 kts | 128° |
| 2026-04-17 02:51 | 5.39462 | 162.63807 | 5168 ft | 254 kts | 128° |
| 2026-04-17 02:51 | 5.38385 | 162.65180 | 4976 ft | 244 kts | 127° |
| 2026-04-17 02:52 | 5.37360 | 162.66487 | 4773 ft | 236 kts | 127° |
| 2026-04-17 02:52 | 5.36359 | 162.67763 | 4522 ft | 229 kts | 127° |
| 2026-04-17 02:52 | 5.35381 | 162.69009 | 4350 ft | 226 kts | 127° |
| 2026-04-17 02:52 | 5.34423 | 162.70232 | 4094 ft | 224 kts | 128° |
| 2026-04-17 02:53 | 5.33469 | 162.71447 | 3909 ft | 218 kts | 127° |
| 2026-04-17 02:53 | 5.32542 | 162.72629 | 3791 ft | 213 kts | 127° |
| 2026-04-17 02:53 | 5.31631 | 162.73791 | 3696 ft | 214 kts | 128° |
| 2026-04-17 02:53 | 5.30701 | 162.74977 | 3622 ft | 219 kts | 127° |
| 2026-04-17 02:54 | 5.29756 | 162.76182 | 3505 ft | 219 kts | 127° |
| 2026-04-17 02:54 | 5.28822 | 162.77372 | 3429 ft | 216 kts | 126° |
| 2026-04-17 02:54 | 5.28219 | 162.78713 | 3201 ft | 210 kts | 93° |
| 2026-04-17 02:54 | 5.28411 | 162.80099 | 3081 ft | 197 kts | 73° |
| 2026-04-17 02:55 | 5.28937 | 162.81354 | 2841 ft | 193 kts | 66° |
| 2026-04-17 02:55 | 5.29499 | 162.82548 | 2611 ft | 185 kts | 66° |
| 2026-04-17 02:55 | 5.30039 | 162.83710 | 2445 ft | 183 kts | 67° |
| 2026-04-17 02:55 | 5.30579 | 162.84887 | 2244 ft | 189 kts | 67° |
| 2026-04-17 02:56 | 5.31133 | 162.86104 | 1997 ft | 194 kts | 68° |
| 2026-04-17 02:56 | 5.31692 | 162.87332 | 1711 ft | 198 kts | 68° |
| 2026-04-17 02:56 | 5.32272 | 162.88597 | 1398 ft | 199 kts | 66° |
| 2026-04-17 02:56 | 5.32840 | 162.89849 | 1151 ft | 193 kts | 66° |
| 2026-04-17 02:57 | 5.33378 | 162.91037 | 897 ft | 181 kts | 67° |
| 2026-04-17 02:57 | 5.33884 | 162.92155 | 719 ft | 169 kts | 66° |
| 2026-04-17 02:57 | 5.34346 | 162.93203 | 469 ft | 155 kts | 69° |
| 2026-04-17 02:57 | 5.34707 | 162.94166 | 305 ft | 140 kts | 67° |
| 2026-04-17 02:58 | 5.35154 | 162.95014 | 117 ft | 138 kts | 58° |
| 2026-04-17 02:58 | 5.35649 | 162.95775 | 26 ft | 106 kts | 56° |
| 2026-04-17 02:58 | 5.35907 | 162.96153 | 29 ft | 43 kts | 55° |
| 2026-04-17 02:58 | 5.36045 | 162.96354 | 29 ft | 22 kts | 55° |
| 2026-04-17 02:59 | 5.36085 | 162.96454 | 29 ft | 13 kts | 67° |
| 2026-04-17 02:59 | 5.36135 | 162.96484 | 28 ft | 8 kts | 330° |
| 2026-04-17 02:59 | 5.36127 | 162.96437 | 29 ft | 8 kts | 212° |
| 2026-04-17 02:59 | 5.36083 | 162.96405 | 29 ft | 8 kts | 228° |
| 2026-04-17 03:00 | 5.36051 | 162.96362 | 29 ft | 8 kts | 234° |
| 2026-04-17 03:00 | 5.36018 | 162.96315 | 28 ft | 9 kts | 235° |
| 2026-04-17 03:00 | 5.35983 | 162.96262 | 29 ft | 9 kts | 236° |
| 2026-04-17 03:00 | 5.35944 | 162.96205 | 29 ft | 11 kts | 235° |
| 2026-04-17 03:01 | 5.35893 | 162.96131 | 29 ft | 15 kts | 236° |
| 2026-04-17 03:01 | 5.35827 | 162.96035 | 28 ft | 19 kts | 235° |
| 2026-04-17 03:01 | 5.35752 | 162.95925 | 27 ft | 19 kts | 236° |
| 2026-04-17 03:01 | 5.35679 | 162.95818 | 27 ft | 18 kts | 235° |
| 2026-04-17 03:02 | 5.35609 | 162.95715 | 27 ft | 18 kts | 236° |
| 2026-04-17 03:02 | 5.35541 | 162.95615 | 27 ft | 17 kts | 235° |
| 2026-04-17 03:02 | 5.35481 | 162.95540 | 28 ft | 11 kts | 212° |
| 2026-04-17 03:02 | 5.35420 | 162.95545 | 27 ft | 9 kts | 148° |
| 2026-04-17 03:03 | 5.35372 | 162.95547 | 27 ft | 6 kts | 212° |
| 2026-04-17 03:03 | 5.35345 | 162.95547 | 27 ft | 4 kts | 156° |
| 2026-04-17 03:03 | 5.35322 | 162.95562 | 27 ft | 4 kts | 136° |
| 2026-04-17 03:03 | 5.35327 | 162.95583 | 27 ft | 1 kts | 54° |
| 2026-04-17 03:04 | 5.35328 | 162.95584 | 27 ft | 1 kts | 54° |
| 2026-04-17 03:04 | 5.35331 | 162.95588 | 27 ft | 0 kts | 54° |